Time;durP1;ratioP1;P1;durP2;ratioP2;P2;SDS_P1;SDS_P2;PMS_P1;PMS_P2;Temp;Humidity;BMP_temperature;BMP_pressure;BME280_temperature;BME280_humidity;BME280_pressure;Samples;Min_cycle;Max_cycle;Signal;HPM_P1;HPM_P2
2022/08/25 00:00:19;;;;;;;10.05;5.93;;;;;;;;;;5055322;28;20032;-70
2022/08/25 00:02:46;;;;;;;9.88;6.60;;;;;;;;;;5055678;28;20020;-69
2022/08/25 00:05:12;;;;;;;12.05;6.00;;;;;;;;;;5055325;28;20523;-69
2022/08/25 00:07:38;;;;;;;10.45;6.05;;;;;;;;;;5055498;28;20025;-69
2022/08/25 00:10:05;;;;;;;12.13;6.32;;;;;;;;;;5055229;28;20037;-70
2022/08/25 00:12:31;;;;;;;12.25;6.15;;;;;;;;;;5055625;28;20021;-69
2022/08/25 00:14:57;;;;;;;10.95;6.47;;;;;;;;;;5055676;28;20032;-68
2022/08/25 00:17:23;;;;;;;10.40;6.15;;;;;;;;;;5055102;28;20037;-69
2022/08/25 00:19:49;;;;;;;11.73;6.18;;;;;;;;;;5055269;28;20494;-70
2022/08/25 00:22:16;;;;;;;11.27;6.00;;;;;;;;;;5055005;28;20071;-70
2022/08/25 00:24:42;;;;;;;12.15;6.10;;;;;;;;;;5054917;28;20539;-69
2022/08/25 00:27:11;;;;;;;13.82;6.40;;;;;;;;;;5054898;28;20025;-70
2022/08/25 00:29:37;;;;;;;10.95;6.38;;;;;;;;;;5055149;28;20040;-70
2022/08/25 00:32:04;;;;;;;10.73;5.97;;;;;;;;;;5054730;28;20028;-70
2022/08/25 00:34:33;;;;;;;9.80;6.40;;;;;;;;;;5036875;28;20059;-69
2022/08/25 00:36:59;;;;;;;12.88;6.68;;;;;;;;;;5054749;28;20550;-69
2022/08/25 00:39:26;;;;;;;11.98;6.72;;;;;;;;;;5054642;28;20032;-69
2022/08/25 00:41:55;;;;;;;11.30;6.32;;;;;;;;;;5054620;28;20024;-69
2022/08/25 00:44:22;;;;;;;12.27;6.43;;;;;;;;;;5054627;28;20021;-69
2022/08/25 00:46:51;;;;;;;11.25;6.78;;;;;;;;;;5036661;28;20020;-70
2022/08/25 00:49:26;;;;;;;11.45;6.82;;;;;;;;;;5036441;28;20481;-70
2022/08/25 00:51:58;;;;;;;12.57;7.38;;;;;;;;;;5054383;28;20025;-68
2022/08/25 00:54:27;;;;;;;13.05;7.40;;;;;;;;;;5054621;28;20029;-70
2022/08/25 00:56:53;;;;;;;10.80;6.68;;;;;;;;;;5053927;28;20052;-69
2022/08/25 00:59:20;;;;;;;11.63;7.10;;;;;;;;;;5054532;28;20099;-69
2022/08/25 01:01:46;;;;;;;11.15;7.43;;;;;;;;;;5054170;28;20028;-69
2022/08/25 01:04:12;;;;;;;14.75;7.15;;;;;;;;;;5054721;28;20029;-69
2022/08/25 01:06:40;;;;;;;12.82;8.07;;;;;;;;;;5054104;28;20025;-69
2022/08/25 01:09:07;;;;;;;12.98;8.05;;;;;;;;;;5054060;28;20374;-69
2022/08/25 01:11:33;;;;;;;13.48;7.55;;;;;;;;;;5053984;28;20028;-70
2022/08/25 01:14:05;;;;;;;14.73;8.20;;;;;;;;;;5054525;28;20113;-69
2022/08/25 01:16:31;;;;;;;12.25;7.90;;;;;;;;;;5054310;28;20013;-69
2022/08/25 01:18:59;;;;;;;12.02;7.97;;;;;;;;;;5054182;28;20021;-70
2022/08/25 01:21:26;;;;;;;15.25;8.35;;;;;;;;;;5036004;28;20028;-70
2022/08/25 01:23:52;;;;;;;15.35;8.52;;;;;;;;;;5053802;28;20075;-68
2022/08/25 01:26:23;;;;;;;14.68;7.78;;;;;;;;;;5054294;28;20028;-69
2022/08/25 01:31:36;;;;;;;25.88;9.40;;;;;;;;;;5053934;28;20036;-69
2022/08/25 01:34:03;;;;;;;24.95;9.02;;;;;;;;;;5053697;28;20096;-70
2022/08/25 01:36:29;;;;;;;17.65;9.52;;;;;;;;;;5053585;28;20482;-69
2022/08/25 01:38:55;;;;;;;12.63;7.95;;;;;;;;;;5053556;28;20104;-69
2022/08/25 01:41:41;;;;;;;19.38;8.25;;;;;;;;;;5053544;28;20025;-69
2022/08/25 01:44:08;;;;;;;16.35;8.60;;;;;;;;;;5032631;28;20481;-70
2022/08/25 01:46:34;;;;;;;15.60;9.05;;;;;;;;;;5053736;28;20389;-68
2022/08/25 01:49:01;;;;;;;13.43;8.52;;;;;;;;;;5053416;28;20098;-70
2022/08/25 01:51:28;;;;;;;20.08;8.68;;;;;;;;;;5053305;28;20079;-70
2022/08/25 01:53:54;;;;;;;13.18;8.35;;;;;;;;;;5035500;28;20120;-70
2022/08/25 01:56:20;;;;;;;14.23;8.50;;;;;;;;;;5053152;28;20111;-68
2022/08/25 01:58:48;;;;;;;14.48;9.20;;;;;;;;;;5053288;28;20029;-68
2022/08/25 02:01:21;;;;;;;14.68;9.73;;;;;;;;;;5053374;28;20052;-70
2022/08/25 02:03:49;;;;;;;15.77;9.07;;;;;;;;;;5053214;28;20036;-68
2022/08/25 02:06:22;;;;;;;13.88;8.20;;;;;;;;;;5035242;28;20393;-68
2022/08/25 02:08:52;;;;;;;14.98;8.23;;;;;;;;;;5053524;28;20079;-69
2022/08/25 02:11:18;;;;;;;12.02;8.43;;;;;;;;;;5053345;28;20025;-68
2022/08/25 02:13:44;;;;;;;12.55;8.27;;;;;;;;;;5053372;28;20025;-70
2022/08/25 02:16:14;;;;;;;14.65;8.95;;;;;;;;;;5053545;28;20028;-68
2022/08/25 02:18:40;;;;;;;12.85;7.53;;;;;;;;;;5058518;28;20029;-70
2022/08/25 02:21:06;;;;;;;14.55;8.35;;;;;;;;;;5059963;28;20351;-69
2022/08/25 02:23:32;;;;;;;17.75;8.77;;;;;;;;;;5059676;28;20029;-70
2022/08/25 02:25:58;;;;;;;13.07;8.45;;;;;;;;;;5059668;28;20025;-70
2022/08/25 02:28:24;;;;;;;14.68;8.75;;;;;;;;;;5059867;28;20379;-69
2022/08/25 02:30:51;;;;;;;17.35;8.80;;;;;;;;;;5059545;28;20075;-69
2022/08/25 02:33:18;;;;;;;12.23;8.00;;;;;;;;;;5059862;28;20017;-69
2022/08/25 02:35:44;;;;;;;13.10;8.15;;;;;;;;;;5059602;28;20044;-71
2022/08/25 02:38:10;;;;;;;12.35;7.43;;;;;;;;;;5059832;28;20060;-70
2022/08/25 02:40:36;;;;;;;13.55;8.60;;;;;;;;;;5059777;28;20021;-70
2022/08/25 02:43:02;;;;;;;13.07;8.20;;;;;;;;;;5059764;28;20028;-68
2022/08/25 02:45:28;;;;;;;16.35;10.30;;;;;;;;;;5059487;28;20021;-70
2022/08/25 02:47:54;;;;;;;14.50;9.07;;;;;;;;;;5060027;28;20021;-69
2022/08/25 02:50:20;;;;;;;17.42;9.15;;;;;;;;;;5059476;28;20074;-69
2022/08/25 02:52:49;;;;;;;15.55;9.93;;;;;;;;;;5059369;28;20032;-69
2022/08/25 02:55:15;;;;;;;15.48;9.25;;;;;;;;;;5059648;28;20098;-68
2022/08/25 02:57:42;;;;;;;15.20;8.48;;;;;;;;;;5059965;28;20025;-70
2022/08/25 03:00:09;;;;;;;15.40;9.13;;;;;;;;;;5059576;28;20529;-69
2022/08/25 03:02:36;;;;;;;12.68;8.82;;;;;;;;;;5059901;28;20485;-69
2022/08/25 03:05:02;;;;;;;14.73;9.65;;;;;;;;;;5059394;28;20032;-69
2022/08/25 03:07:29;;;;;;;17.50;9.48;;;;;;;;;;5059550;28;20045;-69
2022/08/25 03:09:55;;;;;;;14.82;8.88;;;;;;;;;;5059306;28;20098;-70
2022/08/25 03:12:21;;;;;;;14.27;9.70;;;;;;;;;;5059235;28;20025;-69
2022/08/25 03:14:47;;;;;;;13.85;9.68;;;;;;;;;;5060307;28;20017;-69
2022/08/25 03:17:13;;;;;;;19.42;9.73;;;;;;;;;;5059489;28;20079;-69
2022/08/25 03:19:39;;;;;;;14.90;9.00;;;;;;;;;;5059193;28;20393;-69
2022/08/25 03:22:05;;;;;;;21.08;10.57;;;;;;;;;;5059182;28;20059;-69
2022/08/25 03:24:31;;;;;;;15.85;10.75;;;;;;;;;;5059415;28;20025;-69
2022/08/25 03:26:58;;;;;;;16.25;11.18;;;;;;;;;;5059389;28;20075;-69
2022/08/25 03:29:25;;;;;;;17.15;9.98;;;;;;;;;;5056765;28;20408;-68
2022/08/25 03:31:51;;;;;;;17.98;10.95;;;;;;;;;;5055888;28;20033;-69
2022/08/25 03:34:18;;;;;;;16.95;10.95;;;;;;;;;;5056444;28;20373;-69
2022/08/25 03:36:46;;;;;;;14.60;9.13;;;;;;;;;;5055852;28;20111;-69
2022/08/25 03:39:13;;;;;;;16.08;9.88;;;;;;;;;;5056461;28;20025;-69
2022/08/25 03:41:39;;;;;;;15.40;9.85;;;;;;;;;;5056381;28;20033;-69
2022/08/25 03:44:06;;;;;;;16.00;9.00;;;;;;;;;;5055753;28;20025;-69
2022/08/25 03:46:34;;;;;;;16.13;9.18;;;;;;;;;;5055724;28;20037;-69
2022/08/25 03:49:01;;;;;;;12.25;8.52;;;;;;;;;;5056213;28;20028;-69
2022/08/25 03:51:35;;;;;;;13.88;9.35;;;;;;;;;;5055493;28;20538;-70
2022/08/25 03:54:01;;;;;;;13.38;8.82;;;;;;;;;;5056081;28;20047;-69
2022/08/25 03:56:28;;;;;;;13.98;8.75;;;;;;;;;;5055118;28;20111;-70
2022/08/25 03:58:54;;;;;;;13.18;8.65;;;;;;;;;;5037539;28;20039;-69
2022/08/25 04:01:20;;;;;;;12.68;8.60;;;;;;;;;;5055340;28;20370;-69
2022/08/25 04:03:47;;;;;;;12.23;8.05;;;;;;;;;;5055398;28;20029;-69
2022/08/25 04:06:14;;;;;;;13.77;8.85;;;;;;;;;;5055371;28;20104;-70
2022/08/25 04:08:41;;;;;;;13.82;9.25;;;;;;;;;;5055308;28;20033;-68
2022/08/25 04:11:09;;;;;;;13.50;8.52;;;;;;;;;;5055493;28;20481;-68
2022/08/25 04:13:35;;;;;;;13.75;9.40;;;;;;;;;;5055448;28;20033;-71
2022/08/25 04:16:02;;;;;;;13.95;8.95;;;;;;;;;;5055945;28;20023;-68
2022/08/25 04:18:29;;;;;;;14.13;8.90;;;;;;;;;;5055066;28;20099;-69
2022/08/25 04:21:06;;;;;;;16.63;9.15;;;;;;;;;;5055029;28;20021;-70
2022/08/25 04:23:32;;;;;;;12.88;8.05;;;;;;;;;;5055317;28;20104;-68
2022/08/25 04:25:58;;;;;;;14.55;8.13;;;;;;;;;;5055480;28;20021;-70
2022/08/25 04:28:24;;;;;;;16.17;8.55;;;;;;;;;;5037061;28;20033;-68
2022/08/25 04:30:50;;;;;;;12.75;7.70;;;;;;;;;;5055054;28;20048;-70
2022/08/25 04:33:16;;;;;;;16.65;8.00;;;;;;;;;;5054792;28;20063;-70
2022/08/25 04:35:47;;;;;;;17.20;8.25;;;;;;;;;;5055292;28;20017;-70
2022/08/25 04:38:13;;;;;;;14.98;7.72;;;;;;;;;;5055056;28;20123;-70
2022/08/25 04:40:39;;;;;;;18.60;7.75;;;;;;;;;;5054344;28;20029;-69
2022/08/25 04:43:05;;;;;;;13.85;6.65;;;;;;;;;;5054897;28;20029;-70
2022/08/25 04:45:31;;;;;;;15.60;7.53;;;;;;;;;;5054860;28;20029;-68
2022/08/25 04:47:59;;;;;;;15.52;7.35;;;;;;;;;;5054485;28;20469;-69
2022/08/25 04:50:25;;;;;;;21.77;8.50;;;;;;;;;;5054481;28;20059;-69
2022/08/25 04:52:51;;;;;;;18.58;7.55;;;;;;;;;;5054346;28;20032;-69
2022/08/25 04:55:17;;;;;;;13.43;6.97;;;;;;;;;;5054200;28;20460;-68
2022/08/25 04:57:43;;;;;;;13.20;6.65;;;;;;;;;;5054376;28;20362;-69
2022/08/25 05:00:10;;;;;;;15.77;6.80;;;;;;;;;;5054164;28;20087;-70
2022/08/25 05:02:36;;;;;;;16.70;6.72;;;;;;;;;;5054776;28;20500;-70
2022/08/25 05:05:03;;;;;;;18.05;7.35;;;;;;;;;;5054236;28;20021;-69
2022/08/25 05:07:29;;;;;;;15.73;6.63;;;;;;;;;;5054468;28;20025;-69
2022/08/25 05:09:55;;;;;;;12.90;6.55;;;;;;;;;;5054359;28;20029;-68
2022/08/25 05:12:21;;;;;;;16.92;6.47;;;;;;;;;;5053984;28;20409;-69
2022/08/25 05:14:47;;;;;;;17.63;6.38;;;;;;;;;;5054526;28;20005;-69
2022/08/25 05:17:13;;;;;;;17.33;6.35;;;;;;;;;;5054217;28;20024;-69
2022/08/25 05:19:39;;;;;;;15.20;6.25;;;;;;;;;;5053905;28;20025;-68
2022/08/25 05:22:05;;;;;;;14.82;6.18;;;;;;;;;;5053873;28;20032;-69
2022/08/25 05:24:31;;;;;;;20.10;6.03;;;;;;;;;;5053805;28;20036;-69
2022/08/25 05:26:57;;;;;;;13.82;6.07;;;;;;;;;;5054059;28;20036;-69
2022/08/25 05:29:23;;;;;;;16.45;6.25;;;;;;;;;;5053723;28;20099;-70
2022/08/25 05:31:49;;;;;;;22.92;6.53;;;;;;;;;;5053641;28;20059;-69
2022/08/25 05:34:17;;;;;;;15.85;5.05;;;;;;;;;;5053646;28;20389;-69
2022/08/25 05:36:43;;;;;;;16.15;5.22;;;;;;;;;;5053634;28;20028;-69
2022/08/25 05:39:09;;;;;;;18.95;5.65;;;;;;;;;;5053657;28;20028;-69
2022/08/25 05:41:36;;;;;;;19.73;5.47;;;;;;;;;;5053558;28;20100;-70
2022/08/25 05:44:02;;;;;;;14.48;5.30;;;;;;;;;;5053533;28;20131;-68
2022/08/25 05:46:28;;;;;;;12.98;5.38;;;;;;;;;;5035669;28;20576;-70
2022/08/25 05:48:54;;;;;;;11.63;5.00;;;;;;;;;;5053458;28;20392;-68
2022/08/25 05:51:20;;;;;;;13.38;5.65;;;;;;;;;;5053360;28;20499;-69
2022/08/25 05:53:47;;;;;;;15.55;5.47;;;;;;;;;;5052731;28;20029;-68
2022/08/25 05:56:13;;;;;;;16.42;6.43;;;;;;;;;;5053155;28;20509;-70
2022/08/25 05:58:40;;;;;;;10.13;5.35;;;;;;;;;;5053298;28;20032;-70
2022/08/25 06:03:54;;;;;;;15.90;6.43;;;;;;;;;;5053646;28;20040;-69
2022/08/25 06:06:23;;;;;;;16.50;5.93;;;;;;;;;;5053512;28;20021;-68
2022/08/25 06:08:50;;;;;;;14.33;6.60;;;;;;;;;;5053242;28;20036;-69
2022/08/25 06:11:16;;;;;;;15.55;6.65;;;;;;;;;;5053081;28;20029;-68
2022/08/25 06:13:42;;;;;;;11.40;7.00;;;;;;;;;;5053649;28;20017;-69
2022/08/25 06:16:08;;;;;;;12.93;6.53;;;;;;;;;;5053588;28;20021;-68
2022/08/25 06:18:34;;;;;;;13.63;5.65;;;;;;;;;;5053637;28;20440;-70
2022/08/25 06:21:07;;;;;;;10.98;5.47;;;;;;;;;;5053056;28;20021;-68
2022/08/25 06:23:33;;;;;;;11.95;6.20;;;;;;;;;;5053670;28;20096;-69
2022/08/25 06:25:59;;;;;;;14.70;6.28;;;;;;;;;;5053002;28;20056;-69
2022/08/25 06:28:25;;;;;;;13.23;6.65;;;;;;;;;;5052961;28;20075;-69
2022/08/25 06:30:57;;;;;;;13.82;6.50;;;;;;;;;;5052926;28;20075;-69
2022/08/25 06:33:23;;;;;;;12.52;6.47;;;;;;;;;;5053297;28;20052;-69
2022/08/25 06:35:52;;;;;;;12.35;6.25;;;;;;;;;;5035163;28;20029;-68
2022/08/25 06:38:18;;;;;;;17.15;6.40;;;;;;;;;;5052900;28;20057;-69
2022/08/25 06:40:47;;;;;;;11.95;6.05;;;;;;;;;;5052888;28;20032;-69
2022/08/25 06:43:13;;;;;;;14.85;6.53;;;;;;;;;;5052826;28;20080;-69
2022/08/25 06:45:39;;;;;;;12.68;6.57;;;;;;;;;;5052886;28;20029;-70
2022/08/25 06:48:05;;;;;;;15.63;7.13;;;;;;;;;;5052811;28;20095;-69
2022/08/25 06:50:31;;;;;;;12.07;6.72;;;;;;;;;;5052765;28;20059;-69
2022/08/25 06:52:57;;;;;;;16.67;7.45;;;;;;;;;;5052685;28;20021;-69
2022/08/25 06:55:23;;;;;;;20.13;8.18;;;;;;;;;;5052801;28;20037;-69
2022/08/25 06:57:51;;;;;;;13.77;7.32;;;;;;;;;;5052742;28;20436;-69
2022/08/25 07:00:17;;;;;;;14.88;7.25;;;;;;;;;;5052594;28;20025;-68
2022/08/25 07:02:43;;;;;;;11.27;6.95;;;;;;;;;;5053195;28;20029;-69
2022/08/25 07:05:09;;;;;;;15.55;7.35;;;;;;;;;;5037875;28;20036;-69
2022/08/25 07:07:36;;;;;;;13.95;8.25;;;;;;;;;;5056454;28;20394;-69
2022/08/25 07:10:02;;;;;;;12.20;7.10;;;;;;;;;;5056420;28;20056;-69
2022/08/25 07:12:28;;;;;;;21.17;7.78;;;;;;;;;;5056285;28;20063;-68
2022/08/25 07:14:54;;;;;;;18.45;7.95;;;;;;;;;;5056833;28;20466;-69
2022/08/25 07:17:22;;;;;;;14.45;7.57;;;;;;;;;;5056256;28;20025;-68
2022/08/25 07:19:48;;;;;;;14.05;7.85;;;;;;;;;;5056220;28;20040;-69
2022/08/25 07:22:14;;;;;;;13.18;6.75;;;;;;;;;;5038303;28;20473;-69
2022/08/25 07:24:40;;;;;;;11.60;6.57;;;;;;;;;;5056117;28;20107;-69
2022/08/25 07:27:07;;;;;;;13.15;5.80;;;;;;;;;;5038164;28;20533;-70
2022/08/25 07:29:35;;;;;;;11.27;4.75;;;;;;;;;;5056129;28;20040;-68
2022/08/25 07:32:01;;;;;;;9.07;3.75;;;;;;;;;;5055972;28;20024;-68
2022/08/25 07:37:12;;;;;;;7.95;2.72;;;;;;;;;;5055974;28;20036;-68
2022/08/25 07:39:38;;;;;;;5.60;2.80;;;;;;;;;;5056100;28;20025;-68
2022/08/25 07:42:04;;;;;;;6.43;3.10;;;;;;;;;;5055837;28;20028;-69
2022/08/25 07:44:30;;;;;;;6.30;3.17;;;;;;;;;;5056311;28;20143;-68
2022/08/25 07:46:57;;;;;;;6.70;3.70;;;;;;;;;;5055712;28;20067;-70
2022/08/25 07:49:24;;;;;;;7.47;3.65;;;;;;;;;;5056194;28;20025;-69
2022/08/25 07:51:51;;;;;;;5.93;3.35;;;;;;;;;;5055541;28;20027;-68
2022/08/25 07:54:17;;;;;;;9.80;3.67;;;;;;;;;;5055541;28;20100;-69
2022/08/25 07:56:43;;;;;;;6.30;3.13;;;;;;;;;;5055194;28;20045;-69
2022/08/25 07:59:09;;;;;;;6.22;3.50;;;;;;;;;;5055563;28;20370;-73
2022/08/25 08:01:36;;;;;;;8.15;3.80;;;;;;;;;;5055302;28;20036;-72
2022/08/25 08:04:02;;;;;;;5.28;3.30;;;;;;;;;;5055370;28;20029;-72
2022/08/25 08:06:28;;;;;;;5.50;2.90;;;;;;;;;;5055287;28;20103;-73
2022/08/25 08:08:55;;;;;;;6.13;2.90;;;;;;;;;;5055200;28;20040;-68
2022/08/25 08:11:25;;;;;;;7.82;2.50;;;;;;;;;;5055430;28;20028;-67
2022/08/25 08:13:51;;;;;;;5.65;2.45;;;;;;;;;;5055569;28;20048;-67
2022/08/25 08:16:18;;;;;;;3.97;2.35;;;;;;;;;;5055026;28;20096;-69
2022/08/25 08:18:45;;;;;;;5.05;2.33;;;;;;;;;;5055380;28;20029;-68
2022/08/25 08:21:14;;;;;;;6.88;2.10;;;;;;;;;;5055084;28;20025;-75
2022/08/25 08:23:40;;;;;;;3.65;1.52;;;;;;;;;;5054941;28;20510;-74
2022/08/25 08:26:06;;;;;;;4.43;1.80;;;;;;;;;;5054959;28;20117;-79
2022/08/25 08:28:32;;;;;;;5.07;2.08;;;;;;;;;;5054888;28;20033;-73
2022/08/25 08:30:58;;;;;;;3.58;2.17;;;;;;;;;;5054876;28;20021;-71
2022/08/25 08:33:24;;;;;;;4.20;2.13;;;;;;;;;;5054917;28;20079;-68
2022/08/25 08:35:57;;;;;;;6.43;2.30;;;;;;;;;;5054685;28;20029;-69
2022/08/25 08:38:23;;;;;;;4.40;2.03;;;;;;;;;;5055040;28;20026;-68
2022/08/25 08:42:15;;;;;;;5.75;1.90;;;;;;;;;;5054649;28;20079;-68
2022/08/25 08:43:43;;;;;;;3.35;1.80;;;;;;;;;;5054330;28;20124;-69
2022/08/25 08:46:09;;;;;;;4.72;1.90;;;;;;;;;;5036689;28;20051;-71
2022/08/25 08:48:48;;;;;;;3.35;1.50;;;;;;;;;;5055120;28;20021;-68
2022/08/25 08:51:17;;;;;;;4.10;1.60;;;;;;;;;;5054502;28;20535;-68
2022/08/25 08:53:53;;;;;;;4.70;1.70;;;;;;;;;;5054487;28;20051;-69
2022/08/25 08:56:22;;;;;;;2.72;1.50;;;;;;;;;;5054287;28;20106;-69
2022/08/25 08:58:48;;;;;;;3.00;1.63;;;;;;;;;;5054618;28;20482;-69
2022/08/25 09:01:22;;;;;;;6.85;1.55;;;;;;;;;;5054364;28;20036;-70
2022/08/25 09:03:51;;;;;;;2.10;1.15;;;;;;;;;;5054605;28;20167;-78
2022/08/25 09:06:23;;;;;;;4.50;1.33;;;;;;;;;;5036540;28;20159;-68
2022/08/25 09:08:50;;;;;;;2.63;1.10;;;;;;;;;;5054297;28;20032;-77
2022/08/25 09:11:22;;;;;;;1.45;1.00;;;;;;;;;;5053956;28;20040;-77
2022/08/25 09:14:03;;;;;;;2.78;1.02;;;;;;;;;;5054185;28;20504;-76
2022/08/25 09:16:55;;;;;;;2.90;1.38;;;;;;;;;;5054569;28;20056;-70
2022/08/25 09:19:32;;;;;;;3.72;1.30;;;;;;;;;;5048240;28;20401;-70
2022/08/25 09:22:18;;;;;;;3.00;1.23;;;;;;;;;;5035790;28;20032;-69
2022/08/25 09:24:47;;;;;;;5.15;1.80;;;;;;;;;;5054443;28;20107;-73
2022/08/25 09:27:32;;;;;;;3.42;1.25;;;;;;;;;;5035051;28;20029;-69
2022/08/25 09:30:08;;;;;;;1.58;0.98;;;;;;;;;;5053805;28;20025;-70
2022/08/25 09:33:02;;;;;;;4.45;1.42;;;;;;;;;;5053872;28;20028;-69
2022/08/25 09:35:32;;;;;;;2.80;0.77;;;;;;;;;;5053715;28;20028;-71
2022/08/25 09:38:00;;;;;;;3.58;0.70;;;;;;;;;;5054191;28;20469;-74
2022/08/25 09:40:27;;;;;;;0.88;0.88;;;;;;;;;;5053572;28;20028;-71
2022/08/25 09:42:54;;;;;;;1.55;0.70;;;;;;;;;;5053531;28;20028;-68
2022/08/25 09:45:34;;;;;;;2.20;0.93;;;;;;;;;;5035507;28;20047;-72
2022/08/25 09:48:01;;;;;;;1.40;0.88;;;;;;;;;;5053483;28;20021;-70
2022/08/25 09:50:31;;;;;;;1.30;0.70;;;;;;;;;;5053491;28;20021;-69
2022/08/25 09:53:10;;;;;;;1.25;0.40;;;;;;;;;;5053519;28;20056;-71
2022/08/25 09:55:38;;;;;;;2.05;0.40;;;;;;;;;;5055112;28;20123;-72
2022/08/25 09:58:14;;;;;;;0.88;0.60;;;;;;;;;;5053673;28;20033;-74
2022/08/25 10:00:40;;;;;;;1.33;0.40;;;;;;;;;;5053213;28;20033;-73
2022/08/25 10:03:12;;;;;;;2.38;0.52;;;;;;;;;;5035408;28;20028;-71
2022/08/25 10:05:41;;;;;;;1.58;0.30;;;;;;;;;;5053381;28;20100;-72
2022/08/25 10:08:12;;;;;;;1.47;0.60;;;;;;;;;;5053132;28;20075;-72
2022/08/25 10:10:43;;;;;;;0.52;0.45;;;;;;;;;;5053266;28;20013;-71
2022/08/25 10:13:17;;;;;;;2.10;0.60;;;;;;;;;;5053229;28;20134;-73
2022/08/25 10:15:44;;;;;;;3.28;0.95;;;;;;;;;;5053704;28;20029;-74
2022/08/25 10:18:20;;;;;;;0.30;0.30;;;;;;;;;;5053322;28;20047;-73
2022/08/25 10:21:02;;;;;;;2.13;0.50;;;;;;;;;;5034946;28;20021;-72
2022/08/25 10:23:28;;;;;;;1.70;0.40;;;;;;;;;;5053085;28;20021;-72
2022/08/25 10:25:55;;;;;;;3.38;0.75;;;;;;;;;;5053056;28;20067;-72
2022/08/25 10:28:28;;;;;;;1.70;0.75;;;;;;;;;;5035100;28;20033;-72
2022/08/25 10:31:00;;;;;;;3.22;0.80;;;;;;;;;;5053356;28;20027;-73
2022/08/25 10:33:33;;;;;;;1.48;0.40;;;;;;;;;;5052972;28;20024;-72
2022/08/25 10:36:04;;;;;;;0.73;0.60;;;;;;;;;;5053252;28;20047;-73
2022/08/25 10:38:44;;;;;;;1.70;0.40;;;;;;;;;;5053730;28;20021;-71
2022/08/25 10:41:33;;;;;;;1.48;0.43;;;;;;;;;;5057561;28;20033;-75
2022/08/25 10:43:59;;;;;;;0.55;0.47;;;;;;;;;;5038838;28;20021;-73
2022/08/25 10:46:25;;;;;;;1.17;0.65;;;;;;;;;;5056818;28;20102;-73
2022/08/25 10:49:01;;;;;;;0.40;0.30;;;;;;;;;;5038923;28;20108;-71
2022/08/25 10:51:36;;;;;;;0.30;0.30;;;;;;;;;;5056675;28;20036;-71
2022/08/25 10:54:21;;;;;;;1.08;0.63;;;;;;;;;;5056622;28;20025;-73
2022/08/25 10:57:07;;;;;;;2.00;0.60;;;;;;;;;;5056638;28;20045;-73
2022/08/25 10:59:48;;;;;;;1.67;0.30;;;;;;;;;;5055311;28;20013;-72
2022/08/25 11:02:33;;;;;;;2.58;0.38;;;;;;;;;;5038605;28;20044;-73
2022/08/25 11:05:05;;;;;;;1.35;0.35;;;;;;;;;;5056549;28;20024;-73
2022/08/25 11:07:36;;;;;;;1.23;0.40;;;;;;;;;;5056578;28;20035;-72
2022/08/25 11:10:08;;;;;;;2.60;0.55;;;;;;;;;;5057010;28;20025;-72
2022/08/25 11:12:40;;;;;;;3.03;0.63;;;;;;;;;;5056885;28;20031;-73
2022/08/25 11:15:09;;;;;;;0.80;0.43;;;;;;;;;;5056606;28;20017;-73
2022/08/25 11:17:41;;;;;;;1.45;0.40;;;;;;;;;;5056884;28;20056;-73
2022/08/25 11:20:12;;;;;;;1.33;0.45;;;;;;;;;;5056841;28;20021;-73
2022/08/25 11:22:41;;;;;;;3.10;0.70;;;;;;;;;;5056536;28;20385;-72
2022/08/25 11:25:29;;;;;;;0.90;0.45;;;;;;;;;;5056507;28;20024;-74
2022/08/25 11:27:59;;;;;;;0.88;0.40;;;;;;;;;;5056440;28;20033;-71
2022/08/25 11:30:25;;;;;;;;;;;;;;;;;;5056490;28;20024;-73
2022/08/25 11:32:52;;;;;;;1.30;0.38;;;;;;;;;;5056298;28;19978;-74
2022/08/25 11:35:25;;;;;;;0.70;0.30;;;;;;;;;;5038161;28;20572;-73
2022/08/25 11:38:03;;;;;;;1.67;0.52;;;;;;;;;;5056304;28;20053;-71
2022/08/25 11:40:37;;;;;;;3.08;0.73;;;;;;;;;;5055867;28;20032;-73
2022/08/25 11:43:23;;;;;;;2.05;0.50;;;;;;;;;;5056131;28;20485;-72
2022/08/25 11:45:49;;;;;;;0.88;0.50;;;;;;;;;;5055817;28;20036;-73
2022/08/25 11:48:24;;;;;;;2.28;0.60;;;;;;;;;;5055710;28;20028;-69
2022/08/25 11:51:10;;;;;;;3.10;0.73;;;;;;;;;;5054606;28;20056;-71
2022/08/25 11:53:40;;;;;;;1.27;0.50;;;;;;;;;;5055623;28;20116;-79
2022/08/25 11:56:08;;;;;;;1.40;0.60;;;;;;;;;;5055479;28;20578;-76
2022/08/25 11:58:38;;;;;;;2.92;0.60;;;;;;;;;;5037628;28;20025;-76
2022/08/25 12:01:06;;;;;;;1.70;0.75;;;;;;;;;;5055835;28;20021;-80
2022/08/25 12:03:35;;;;;;;0.63;0.63;;;;;;;;;;5038058;28;20028;-75
2022/08/25 12:06:09;;;;;;;3.25;0.82;;;;;;;;;;5055488;28;20496;-70
2022/08/25 12:08:54;;;;;;;3.47;1.25;;;;;;;;;;5055906;28;20082;-76
2022/08/25 12:11:38;;;;;;;1.52;0.80;;;;;;;;;;5055296;28;20036;-68
2022/08/25 12:14:15;;;;;;;2.58;0.80;;;;;;;;;;5055533;28;20453;-68
2022/08/25 12:17:01;;;;;;;1.52;0.98;;;;;;;;;;5056264;28;20052;-74
2022/08/25 12:19:36;;;;;;;2.53;1.13;;;;;;;;;;5047883;28;20044;-79
2022/08/25 12:22:02;;;;;;;4.70;1.30;;;;;;;;;;5037248;28;20036;-74
2022/08/25 12:24:37;;;;;;;2.42;1.40;;;;;;;;;;5055013;28;20033;-74
2022/08/25 12:27:05;;;;;;;1.55;1.40;;;;;;;;;;5055564;28;20108;-77
2022/08/25 12:29:41;;;;;;;2.80;1.35;;;;;;;;;;5055497;28;20075;-71
2022/08/25 12:32:14;;;;;;;1.30;1.15;;;;;;;;;;5055429;28;20021;-76
2022/08/25 12:34:58;;;;;;;3.85;1.27;;;;;;;;;;5054844;28;20032;-76
2022/08/25 12:37:26;;;;;;;2.95;1.38;;;;;;;;;;5036976;28;20048;-78
2022/08/25 12:39:52;;;;;;;1.58;1.48;;;;;;;;;;5054771;28;20021;-70
2022/08/25 12:42:23;;;;;;;2.13;1.70;;;;;;;;;;5055027;28;20087;-75
2022/08/25 12:45:08;;;;;;;3.60;1.40;;;;;;;;;;5054672;28;20105;-77
2022/08/25 12:47:34;;;;;;;2.22;1.23;;;;;;;;;;5054917;28;20484;-71
2022/08/25 12:50:19;;;;;;;1.90;1.55;;;;;;;;;;5054633;28;20025;-72
2022/08/25 12:52:45;;;;;;;3.50;1.70;;;;;;;;;;5054464;28;20057;-70
2022/08/25 12:55:12;;;;;;;2.08;1.70;;;;;;;;;;5054237;28;20056;-77
2022/08/25 12:57:41;;;;;;;4.70;2.03;;;;;;;;;;5036256;28;20075;-77
2022/08/25 13:00:27;;;;;;;6.05;1.95;;;;;;;;;;5054926;28;20029;-80
2022/08/25 13:03:05;;;;;;;9.30;2.47;;;;;;;;;;5054663;28;20099;-75
2022/08/25 13:05:34;;;;;;;4.78;1.92;;;;;;;;;;5053919;28;20497;-70
2022/08/25 13:08:03;;;;;;;5.20;1.80;;;;;;;;;;5054155;28;20021;-71
2022/08/25 13:10:38;;;;;;;5.72;2.58;;;;;;;;;;5054193;28;20067;-70
2022/08/25 13:13:09;;;;;;;5.40;2.35;;;;;;;;;;5054072;28;20079;-73
2022/08/25 13:15:35;;;;;;;4.68;2.03;;;;;;;;;;5054684;28;20025;-74
2022/08/25 13:18:14;;;;;;;4.85;2.05;;;;;;;;;;5054608;28;20022;-71
2022/08/25 13:20:40;;;;;;;6.75;2.85;;;;;;;;;;5036186;28;20375;-72
2022/08/25 13:23:06;;;;;;;7.35;2.58;;;;;;;;;;5053974;28;20039;-72
2022/08/25 13:25:47;;;;;;;8.25;2.88;;;;;;;;;;5036081;28;20485;-70
2022/08/25 13:28:20;;;;;;;6.95;3.10;;;;;;;;;;5053899;28;20021;-73
2022/08/25 13:30:55;;;;;;;9.68;3.15;;;;;;;;;;5054135;28;20033;-72
2022/08/25 13:33:25;;;;;;;7.13;2.67;;;;;;;;;;5054061;28;20050;-72
2022/08/25 13:38:41;;;;;;;;;;;;;;;;;;5025831;28;19904;-69
2022/08/25 13:41:08;;;;;;;7.13;3.13;;;;;;;;;;5053660;28;20364;-75
2022/08/25 13:43:35;;;;;;;7.13;3.15;;;;;;;;;;5053942;28;20023;-74
2022/08/25 13:46:01;;;;;;;8.18;3.60;;;;;;;;;;5053821;28;20025;-73
2022/08/25 13:48:33;;;;;;;19.33;3.88;;;;;;;;;;5053560;28;20028;-73
2022/08/25 13:51:08;;;;;;;8.18;3.47;;;;;;;;;;5053585;28;20568;-74
2022/08/25 13:53:34;;;;;;;7.38;3.15;;;;;;;;;;5053366;28;20025;-74
2022/08/25 13:56:01;;;;;;;8.90;3.33;;;;;;;;;;5053298;28;20083;-78
2022/08/25 13:58:31;;;;;;;5.50;2.53;;;;;;;;;;5035442;28;20032;-78
2022/08/25 14:01:07;;;;;;;4.35;2.50;;;;;;;;;;5035225;28;20505;-79
2022/08/25 14:03:33;;;;;;;4.25;2.38;;;;;;;;;;5053285;28;20032;-74
2022/08/25 14:06:14;;;;;;;4.82;2.38;;;;;;;;;;5053292;28;20025;-77
2022/08/25 14:09:00;;;;;;;4.90;1.98;;;;;;;;;;5053515;28;20021;-74
2022/08/25 14:11:26;;;;;;;4.05;1.98;;;;;;;;;;5045895;28;20071;-71
2022/08/25 14:14:11;;;;;;;4.20;2.30;;;;;;;;;;5052530;28;20052;-70
2022/08/25 14:16:46;;;;;;;6.85;2.15;;;;;;;;;;5054269;28;20017;-70
2022/08/25 14:19:14;;;;;;;5.20;2.88;;;;;;;;;;5053467;28;20124;-70
2022/08/25 14:21:40;;;;;;;4.82;2.85;;;;;;;;;;5053054;28;20025;-70
2022/08/25 14:24:07;;;;;;;6.15;2.80;;;;;;;;;;5053018;28;20385;-72
2022/08/25 14:26:33;;;;;;;3.88;2.33;;;;;;;;;;5053074;28;20024;-70
2022/08/25 14:28:59;;;;;;;4.60;2.03;;;;;;;;;;5053080;28;20032;-71
2022/08/25 14:31:30;;;;;;;4.65;1.88;;;;;;;;;;5052930;28;20055;-74
2022/08/25 14:33:56;;;;;;;5.85;2.03;;;;;;;;;;5053203;28;20032;-75
2022/08/25 14:36:22;;;;;;;2.90;1.70;;;;;;;;;;5052484;28;20405;-76
2022/08/25 14:38:48;;;;;;;3.30;1.70;;;;;;;;;;5052411;28;20021;-74
2022/08/25 14:41:14;;;;;;;2.45;1.40;;;;;;;;;;5034156;28;20028;-74
2022/08/25 14:43:41;;;;;;;4.53;1.83;;;;;;;;;;5051108;28;20028;-74
2022/08/25 14:46:10;;;;;;;5.60;2.00;;;;;;;;;;5052483;28;20024;-76
2022/08/25 14:48:41;;;;;;;4.40;1.92;;;;;;;;;;5052332;28;20021;-74
2022/08/25 14:51:07;;;;;;;4.82;1.83;;;;;;;;;;5052290;28;20100;-76
2022/08/25 14:53:34;;;;;;;6.63;1.73;;;;;;;;;;5034614;28;20025;-77
2022/08/25 14:56:00;;;;;;;5.68;2.00;;;;;;;;;;5052573;28;20045;-74
2022/08/25 14:58:27;;;;;;;3.80;1.67;;;;;;;;;;5053200;28;20056;-73